createdAt,value
2022-12-25T00:00:27.279Z,87.18
2022-12-25T00:03:30.047Z,87.10
2022-12-25T00:06:32.539Z,87.01
2022-12-25T00:09:35.109Z,86.92
2022-12-25T00:12:37.448Z,86.89
2022-12-25T00:15:41.860Z,86.80
2022-12-25T00:18:45.172Z,86.66
2022-12-25T00:21:48.343Z,86.59
2022-12-25T00:24:51.033Z,86.67
2022-12-25T00:27:53.803Z,86.71
2022-12-25T00:30:56.159Z,86.70
2022-12-25T00:33:58.848Z,86.75
2022-12-25T00:37:01.224Z,86.85
2022-12-25T00:40:04.162Z,86.94
2022-12-25T00:43:06.424Z,87.01
2022-12-25T00:46:11.672Z,86.94
2022-12-25T00:49:14.200Z,86.86
2022-12-25T00:52:16.799Z,86.89
2022-12-25T00:55:19.166Z,87.10
2022-12-25T00:58:23.018Z,86.93
2022-12-25T01:01:25.460Z,86.94
2022-12-25T01:04:28.179Z,87.01
2022-12-25T01:07:30.523Z,86.74
2022-12-25T01:10:33.222Z,86.55
2022-12-25T01:13:36.787Z,86.42
2022-12-25T01:16:39.553Z,86.48
2022-12-25T01:19:41.965Z,86.45
2022-12-25T01:22:45.353Z,86.43
2022-12-25T01:25:47.910Z,86.46
2022-12-25T01:28:51.116Z,86.44
2022-12-25T01:31:53.523Z,86.16
2022-12-25T01:34:56.605Z,85.92
2022-12-25T01:37:58.998Z,85.83
2022-12-25T01:41:01.639Z,86.07
2022-12-25T01:44:08.309Z,86.09
2022-12-25T01:47:11.145Z,86.10
2022-12-25T01:50:13.495Z,86.40
2022-12-25T01:53:16.280Z,86.39
2022-12-25T01:56:19.088Z,86.29
2022-12-25T01:59:23.657Z,86.39
2022-12-25T02:02:27.803Z,86.41
2022-12-25T02:05:33.219Z,86.65
2022-12-25T02:08:35.692Z,87.09
2022-12-25T02:11:56.484Z,86.44
2022-12-25T02:15:05.719Z,86.68
2022-12-25T02:18:26.963Z,86.65
2022-12-25T02:21:47.361Z,87.09
2022-12-25T02:25:12.169Z,86.78
2022-12-25T02:28:30.202Z,87.05
2022-12-25T02:31:49.809Z,87.10
2022-12-25T02:35:01.147Z,87.41
2022-12-25T02:38:11.381Z,87.54
2022-12-25T02:41:16.882Z,87.39
2022-12-25T02:44:41.488Z,87.44
2022-12-25T02:48:02.287Z,87.29
2022-12-25T02:51:28.319Z,87.34
2022-12-25T02:54:54.696Z,87.20
2022-12-25T02:58:21.079Z,87.24
2022-12-25T03:01:47.179Z,87.17
2022-12-25T03:05:11.480Z,87.11
2022-12-25T03:08:20.609Z,87.06
2022-12-25T03:11:32.459Z,87.27
2022-12-25T03:14:53.488Z,87.37
2022-12-25T03:17:59.036Z,87.59
2022-12-25T03:21:20.111Z,87.33
2022-12-25T03:24:41.571Z,87.26
2022-12-25T03:27:46.688Z,87.19
2022-12-25T03:31:12.702Z,87.27
2022-12-25T03:35:05.894Z,87.11
2022-12-25T03:38:36.992Z,87.12
2022-12-25T03:42:05.385Z,87.49
2022-12-25T03:45:40.803Z,87.38
2022-12-25T03:49:08.853Z,87.45
2022-12-25T03:52:35.100Z,87.81
2022-12-25T03:55:59.965Z,88.03
2022-12-25T03:59:24.074Z,87.87
2022-12-25T04:02:45.499Z,87.88
2022-12-25T04:06:06.905Z,87.63
2022-12-25T04:09:27.504Z,87.73
2022-12-25T04:12:48.809Z,87.77
2022-12-25T04:16:13.118Z,87.53
2022-12-25T04:19:34.093Z,87.45
2022-12-25T04:22:54.979Z,87.42
2022-12-25T04:26:17.534Z,87.34
2022-12-25T04:29:38.667Z,87.26
2022-12-25T04:33:00.248Z,87.40
2022-12-25T04:36:14.718Z,87.21
2022-12-25T04:39:17.265Z,87.33
2022-12-25T04:42:19.631Z,87.31
2022-12-25T04:45:22.233Z,87.25
2022-12-25T04:48:25.659Z,87.19
2022-12-25T04:51:28.350Z,87.40
2022-12-25T04:54:30.633Z,87.27
2022-12-25T04:57:33.499Z,87.14
2022-12-25T05:00:36.292Z,87.17
2022-12-25T05:03:39.721Z,86.99
2022-12-25T05:06:42.165Z,86.98
2022-12-25T05:09:44.782Z,87.28
2022-12-25T05:12:47.228Z,87.38
2022-12-25T05:15:50.168Z,87.62
2022-12-25T05:18:52.622Z,87.78
2022-12-25T05:21:55.340Z,87.86
2022-12-25T05:24:57.655Z,87.95
2022-12-25T05:28:00.304Z,88.00
2022-12-25T05:31:03.152Z,88.10
2022-12-25T05:34:05.811Z,88.10
2022-12-25T05:37:08.252Z,88.16
2022-12-25T05:40:11.414Z,88.18
2022-12-25T05:43:13.812Z,88.40
2022-12-25T05:46:16.682Z,88.30
2022-12-25T05:49:19.097Z,88.26
2022-12-25T05:52:21.704Z,88.51
2022-12-25T05:55:24.026Z,88.62
2022-12-25T05:58:26.644Z,88.82
2022-12-25T06:01:29.375Z,88.92
2022-12-25T06:04:32.151Z,88.80
2022-12-25T06:07:34.539Z,88.88
2022-12-25T06:10:37.191Z,88.91
2022-12-25T06:13:40.113Z,88.94
2022-12-25T06:16:42.904Z,89.28
2022-12-25T06:19:45.351Z,89.12
2022-12-25T06:22:47.932Z,89.19
2022-12-25T06:25:50.272Z,89.25
2022-12-25T06:28:53.210Z,89.26
2022-12-25T06:31:57.342Z,89.32
2022-12-25T06:35:00.285Z,89.11
2022-12-25T06:38:02.689Z,89.05
2022-12-25T06:41:10.978Z,89.18
2022-12-25T06:44:13.997Z,89.07
2022-12-25T06:47:17.153Z,89.11
2022-12-25T06:50:19.541Z,89.14
2022-12-25T06:53:22.142Z,89.29
2022-12-25T06:56:27.685Z,89.36
2022-12-25T06:59:30.277Z,89.36
2022-12-25T07:02:33.602Z,89.55
2022-12-25T07:05:36.261Z,89.33
2022-12-25T07:08:38.796Z,89.13
2022-12-25T07:11:42.417Z,89.23
2022-12-25T07:14:48.696Z,89.46
2022-12-25T07:17:51.321Z,89.39
2022-12-25T07:20:55.772Z,89.13
2022-12-25T07:23:58.424Z,89.05
2022-12-25T07:27:00.818Z,89.14
2022-12-25T07:30:04.009Z,89.19
2022-12-25T07:33:06.346Z,89.13
2022-12-25T07:36:12.602Z,88.80
2022-12-25T07:39:16.363Z,88.93
2022-12-25T07:42:24.813Z,88.67
2022-12-25T07:45:29.875Z,88.59
2022-12-25T07:48:32.937Z,88.46
2022-12-25T07:51:35.292Z,87.81
2022-12-25T07:54:37.885Z,87.51
2022-12-25T07:57:40.277Z,87.34
2022-12-25T08:00:42.915Z,87.00
2022-12-25T08:03:56.385Z,87.03
2022-12-25T08:06:58.730Z,87.17
2022-12-25T08:10:02.039Z,87.21
2022-12-25T08:13:08.964Z,87.23
2022-12-25T08:16:15.284Z,87.25
2022-12-25T08:19:17.835Z,87.25
2022-12-25T08:22:20.584Z,87.03
2022-12-25T08:25:22.939Z,86.86
2022-12-25T08:28:25.553Z,86.50
2022-12-25T08:31:29.394Z,86.23
2022-12-25T08:34:32.068Z,85.84
2022-12-25T08:37:34.530Z,85.26
2022-12-25T08:40:37.161Z,85.08
2022-12-25T08:43:39.571Z,84.96
2022-12-25T08:46:42.680Z,84.69
2022-12-25T08:49:45.072Z,84.05
2022-12-25T08:52:47.861Z,83.90
2022-12-25T08:55:57.561Z,83.53
2022-12-25T08:59:00.260Z,83.29
2022-12-25T09:02:02.718Z,82.86
2022-12-25T09:05:06.041Z,82.49
2022-12-25T09:08:08.781Z,82.00
2022-12-25T09:11:13.956Z,81.70
2022-12-25T09:14:16.269Z,81.82
2022-12-25T09:17:19.636Z,81.75
2022-12-25T09:20:22.042Z,81.74
2022-12-25T09:23:24.751Z,81.12
2022-12-25T09:26:27.329Z,81.00
2022-12-25T09:29:29.992Z,80.84
2022-12-25T09:32:32.367Z,80.60
2022-12-25T09:35:35.179Z,80.83
2022-12-25T09:38:37.850Z,80.81
2022-12-25T09:41:58.387Z,80.28
2022-12-25T09:45:05.819Z,79.53
2022-12-25T09:48:13.912Z,78.65
2022-12-25T09:51:17.731Z,78.00
2022-12-25T09:54:39.793Z,77.71
2022-12-25T09:57:42.160Z,77.29
2022-12-25T10:00:56.557Z,76.83
2022-12-25T10:04:05.168Z,76.45
2022-12-25T10:07:16.572Z,76.74
2022-12-25T10:10:31.713Z,76.69
2022-12-25T10:14:05.917Z,76.49
2022-12-25T10:17:18.157Z,75.99
2022-12-25T10:20:29.243Z,75.58
2022-12-25T10:23:40.865Z,75.01
2022-12-25T10:26:44.803Z,74.43
2022-12-25T10:29:53.382Z,74.45
2022-12-25T10:32:58.199Z,74.23
2022-12-25T10:36:00.951Z,74.02
2022-12-25T10:39:03.737Z,74.06
2022-12-25T10:42:35.978Z,74.01
2022-12-25T10:45:49.543Z,74.03
2022-12-25T10:48:56.561Z,74.11
2022-12-25T10:51:59.026Z,73.75
2022-12-25T10:55:11.769Z,73.35
2022-12-25T10:58:19.888Z,73.25
2022-12-25T11:01:28.219Z,73.07
2022-12-25T11:04:35.199Z,72.63
2022-12-25T11:07:51.254Z,72.56
2022-12-25T11:11:00.040Z,72.61
2022-12-25T11:14:03.226Z,72.41
2022-12-25T11:17:09.969Z,72.26
2022-12-25T11:20:19.333Z,71.50
2022-12-25T11:23:24.221Z,70.50
2022-12-25T11:26:31.875Z,69.96
2022-12-25T11:29:47.433Z,69.77
2022-12-25T11:32:56.126Z,69.88
2022-12-25T11:36:04.330Z,70.82
2022-12-25T11:39:27.468Z,71.12
2022-12-25T11:42:45.327Z,70.48
2022-12-25T11:45:54.886Z,71.10
2022-12-25T11:49:04.880Z,71.75
2022-12-25T11:52:12.810Z,71.93
2022-12-25T11:55:55.610Z,71.78
2022-12-25T11:59:06.379Z,71.97
2022-12-25T12:02:32.924Z,71.58
2022-12-25T12:05:45.334Z,71.26
2022-12-25T12:08:53.051Z,71.46
2022-12-25T12:12:07.592Z,70.53
2022-12-25T12:15:30.270Z,68.27
2022-12-25T12:18:33.938Z,65.76
2022-12-25T12:21:36.444Z,65.85
2022-12-25T12:24:43.192Z,65.83
2022-12-25T12:27:45.868Z,64.29
2022-12-25T12:31:07.678Z,64.38
2022-12-25T12:34:31.551Z,63.02
2022-12-25T12:37:39.199Z,62.71
2022-12-25T12:40:54.283Z,63.42
2022-12-25T12:44:03.534Z,62.79
2022-12-25T12:47:05.909Z,63.98
2022-12-25T12:50:26.215Z,65.14
2022-12-25T12:53:32.135Z,65.54
2022-12-25T12:56:34.819Z,66.13
2022-12-25T12:59:40.777Z,66.16
2022-12-25T13:03:07.673Z,66.26
2022-12-25T13:06:30.584Z,65.63
2022-12-25T13:10:02.631Z,66.02
2022-12-25T13:13:30.309Z,66.46
2022-12-25T13:16:41.455Z,66.04
2022-12-25T13:19:44.996Z,66.34
2022-12-25T13:22:52.567Z,66.68
2022-12-25T13:25:58.175Z,66.66
2022-12-25T13:29:01.993Z,66.96
2022-12-25T13:32:15.350Z,67.00
2022-12-25T13:35:21.175Z,66.90
2022-12-25T13:38:25.864Z,67.03
2022-12-25T13:41:59.131Z,66.69
2022-12-25T13:45:24.126Z,66.74
2022-12-25T13:48:26.931Z,67.03
2022-12-25T13:51:29.284Z,66.85
2022-12-25T13:54:31.943Z,67.13
2022-12-25T13:57:38.468Z,67.52
2022-12-25T14:00:49.884Z,66.97
2022-12-25T14:03:54.687Z,66.46
2022-12-25T14:07:07.924Z,66.61
2022-12-25T14:10:13.304Z,66.97
2022-12-25T14:13:16.854Z,66.89
2022-12-25T14:16:21.684Z,67.30
2022-12-25T14:19:32.421Z,67.99
2022-12-25T14:22:36.030Z,68.45
2022-12-25T14:25:43.980Z,68.75
2022-12-25T14:28:49.090Z,69.27
2022-12-25T14:31:52.547Z,69.84
2022-12-25T14:35:03.619Z,70.20
2022-12-25T14:38:06.373Z,70.36
2022-12-25T14:41:33.531Z,71.06
2022-12-25T14:44:42.379Z,71.85
2022-12-25T14:47:57.637Z,72.68
2022-12-25T14:51:17.302Z,73.23
2022-12-25T14:54:23.176Z,73.48
2022-12-25T14:57:37.052Z,73.34
2022-12-25T15:00:40.192Z,73.66
2022-12-25T15:03:43.742Z,74.01
2022-12-25T15:06:55.545Z,74.24
2022-12-25T15:10:26.994Z,74.68
2022-12-25T15:13:20.942Z,75.21
2022-12-25T15:16:29.712Z,75.83
2022-12-25T15:19:38.241Z,76.47
2022-12-25T15:23:17.871Z,77.18
2022-12-25T15:26:03.964Z,77.68
2022-12-25T15:29:07.554Z,78.01
2022-12-25T15:32:19.056Z,78.31
2022-12-25T15:35:22.233Z,78.74
2022-12-25T15:38:24.896Z,79.03
2022-12-25T15:41:53.751Z,79.62
2022-12-25T15:44:56.678Z,79.76
2022-12-25T15:47:59.206Z,80.62
2022-12-25T15:51:01.796Z,80.73
2022-12-25T15:54:04.601Z,81.03
2022-12-25T15:57:17.000Z,81.03
2022-12-25T16:00:22.777Z,81.36
2022-12-25T16:03:25.510Z,81.51
2022-12-25T16:06:27.891Z,81.71
2022-12-25T16:09:30.543Z,81.69
2022-12-25T16:12:32.920Z,81.55
2022-12-25T16:15:35.664Z,81.34
2022-12-25T16:18:43.363Z,81.12
2022-12-25T16:21:50.144Z,80.88
2022-12-25T16:24:53.106Z,80.75
2022-12-25T16:27:55.706Z,80.62
2022-12-25T16:30:58.280Z,80.49
2022-12-25T16:34:01.535Z,80.53
2022-12-25T16:37:04.662Z,80.61
2022-12-25T16:40:09.565Z,80.34
2022-12-25T16:43:11.905Z,80.33
2022-12-25T16:46:17.974Z,80.29
2022-12-25T16:49:20.427Z,80.19
2022-12-25T16:52:23.176Z,79.94
2022-12-25T16:55:29.873Z,79.90
2022-12-25T16:58:33.108Z,79.66
2022-12-25T17:01:35.638Z,79.41
2022-12-25T17:04:39.380Z,78.90
2022-12-25T17:07:43.006Z,78.69
2022-12-25T17:10:45.583Z,78.74
2022-12-25T17:13:48.517Z,78.79
2022-12-25T17:16:51.417Z,78.68
2022-12-25T17:19:53.808Z,78.19
2022-12-25T17:22:57.662Z,78.04
2022-12-25T17:26:01.543Z,77.94
2022-12-25T17:29:04.317Z,77.54
2022-12-25T17:32:07.925Z,77.26
2022-12-25T17:35:10.588Z,77.26
2022-12-25T17:38:13.155Z,77.16
2022-12-25T17:41:17.713Z,77.22
2022-12-25T17:44:23.114Z,77.21
2022-12-25T17:47:26.278Z,77.42
2022-12-25T17:50:28.583Z,77.58
2022-12-25T17:53:31.881Z,77.78
2022-12-25T17:56:34.376Z,77.91
2022-12-25T17:59:37.034Z,78.00
2022-12-25T18:02:40.259Z,78.17
2022-12-25T18:05:43.110Z,78.23
2022-12-25T18:08:46.595Z,78.47
2022-12-25T18:11:49.228Z,78.63
2022-12-25T18:14:51.697Z,78.71
2022-12-25T18:17:54.503Z,78.42
2022-12-25T18:20:56.886Z,78.43
2022-12-25T18:23:59.671Z,78.47
2022-12-25T18:27:02.000Z,78.53
2022-12-25T18:30:05.188Z,78.55
2022-12-25T18:33:07.917Z,78.62
2022-12-25T18:36:13.207Z,78.73
2022-12-25T18:39:15.649Z,78.91
2022-12-25T18:42:37.074Z,78.96
2022-12-25T18:45:40.405Z,78.91
2022-12-25T18:48:44.320Z,78.94
2022-12-25T18:51:48.828Z,78.96
2022-12-25T18:54:51.535Z,78.89
2022-12-25T18:57:54.400Z,78.78
2022-12-25T19:00:57.116Z,78.74
2022-12-25T19:04:05.051Z,78.64
2022-12-25T19:07:08.454Z,78.48
2022-12-25T19:10:11.053Z,78.32
2022-12-25T19:13:13.749Z,78.25
2022-12-25T19:16:16.554Z,78.17
2022-12-25T19:19:20.758Z,78.18
2022-12-25T19:22:23.248Z,77.96
2022-12-25T19:25:26.331Z,77.99
2022-12-25T19:28:28.661Z,78.00
2022-12-25T19:31:31.338Z,77.79
2022-12-25T19:34:33.791Z,77.74
2022-12-25T19:37:36.530Z,77.61
2022-12-25T19:40:40.502Z,77.48
2022-12-25T19:43:47.502Z,77.43
2022-12-25T19:46:50.066Z,77.50
2022-12-25T19:49:53.659Z,77.30
2022-12-25T19:52:57.331Z,77.46
2022-12-25T19:56:02.493Z,77.43
2022-12-25T19:59:04.896Z,77.51
2022-12-25T20:02:07.666Z,77.60
2022-12-25T20:05:10.471Z,77.70
2022-12-25T20:08:12.786Z,77.80
2022-12-25T20:11:16.891Z,77.85
2022-12-25T20:14:19.722Z,77.83
2022-12-25T20:17:22.443Z,77.92
2022-12-25T20:20:24.793Z,78.01
2022-12-25T20:23:28.112Z,78.02
2022-12-25T20:26:31.741Z,77.82
2022-12-25T20:29:34.441Z,77.88
2022-12-25T20:32:36.778Z,77.84
2022-12-25T20:35:45.107Z,77.99
2022-12-25T20:38:47.528Z,78.03
2022-12-25T20:41:50.121Z,77.87
2022-12-25T20:44:52.468Z,77.85
2022-12-25T20:47:55.478Z,77.51
2022-12-25T20:51:08.258Z,77.48
2022-12-25T20:54:12.733Z,77.45
2022-12-25T20:57:15.090Z,77.45
2022-12-25T21:00:17.833Z,77.75
2022-12-25T21:03:20.501Z,77.80
2022-12-25T21:06:23.255Z,77.86
2022-12-25T21:09:26.369Z,77.87
2022-12-25T21:12:29.305Z,77.72
2022-12-25T21:15:31.592Z,77.47
2022-12-25T21:18:34.347Z,77.07
2022-12-25T21:21:39.165Z,76.80
2022-12-25T21:24:41.835Z,76.55
2022-12-25T21:27:44.197Z,76.29
2022-12-25T21:30:46.891Z,76.24
2022-12-25T21:33:52.846Z,76.23
2022-12-25T21:36:55.663Z,76.14
2022-12-25T21:39:58.201Z,76.32
2022-12-25T21:43:01.285Z,76.32
2022-12-25T21:46:22.027Z,76.37
2022-12-25T21:49:43.351Z,76.45
2022-12-25T21:52:45.752Z,76.17
2022-12-25T21:56:04.556Z,76.27
2022-12-25T21:59:08.948Z,76.21
2022-12-25T22:02:12.228Z,76.34
2022-12-25T22:05:35.584Z,76.39
2022-12-25T22:08:37.950Z,76.37
2022-12-25T22:11:59.286Z,76.43
2022-12-25T22:15:06.136Z,76.51
2022-12-25T22:18:27.328Z,76.69
2022-12-25T22:21:29.660Z,76.45
2022-12-25T22:24:32.458Z,76.61
2022-12-25T22:27:38.018Z,76.98
2022-12-25T22:30:44.396Z,76.84
2022-12-25T22:33:46.843Z,76.78
2022-12-25T22:36:50.222Z,76.72
2022-12-25T22:39:52.630Z,76.90
2022-12-25T22:42:55.967Z,76.92
2022-12-25T22:46:01.975Z,76.87
2022-12-25T22:49:04.765Z,76.88
2022-12-25T22:52:09.435Z,77.08
2022-12-25T22:55:12.516Z,77.00
2022-12-25T22:58:15.418Z,76.98
2022-12-25T23:01:18.092Z,77.09
2022-12-25T23:04:23.927Z,77.19
2022-12-25T23:07:26.607Z,77.24
2022-12-25T23:10:29.095Z,77.25
2022-12-25T23:13:50.281Z,77.39
2022-12-25T23:16:52.615Z,77.32
2022-12-25T23:20:14.858Z,77.30
2022-12-25T23:23:36.579Z,77.38
2022-12-25T23:26:39.137Z,77.42
2022-12-25T23:29:41.478Z,77.44
2022-12-25T23:32:45.332Z,77.51
2022-12-25T23:35:47.653Z,77.45
2022-12-25T23:38:50.416Z,77.53
2022-12-25T23:41:52.894Z,77.56
2022-12-25T23:44:55.713Z,77.88
2022-12-25T23:47:58.018Z,78.01
2022-12-25T23:51:05.629Z,77.99
2022-12-25T23:54:08.023Z,78.06
2022-12-25T23:57:10.685Z,78.12
